Portada
METAR-TAF:

METAR-TAF

Aeroports :

Brunei, Brunei

latitud: 04-56N, longitud: 114-56E, altitud: 22 m

Observació

L'informe es va fer fa 12 minuts, a les 21:00 UTC
Vent 1 kt del Nord-Oest
Temperatura 27°C
Humitat 94%
Pressió 1009 hPa
Visibilitat: 6000 m
Escasses núvols a una alçada de 500 ft
Cel ennuvolat a una alçada de 14000 ft

METAR: WBSB 142100Z 31001KT 6000 FEW005 BKN140 27/26 Q1009 NOSIG

Hora: 05:12 (21:12 UTC)

Pronòstic

L'informe es va fer fa 4 hores i 22 minuts, a les 16:50 UTC
Pronòstic vàlid del 14 a les 18 UTC al 16 a les 00 UTC
Vent 2 kt del Sud-Est
Visibilitat: 7000 m
Escasses núvols a una alçada de 1500 ft
Evolucionant progressivament
l' 15 a les 03 UTC al 15 a les 05 UTC
Vent 10 kt del Nord/Nord-Oest
Escasses núvols a una alçada de 1600 ft

TAF: WBSB 141650Z 1418/1600 14002KT 7000 FEW015 BECMG 1503/1505 33010KT FEW016

Observacions i pronòstics meteorològics de més de 4000 aeroports (METAR i TAF).

Les estacions disponibles són els punts grocs i vermells al mapa.

Posi el ratolí al punt desitjat per veure el nom de l'estació.

Feu clic per veure les observacions i els pronòstics meteorològics.

Per canviar el mapa: feu clic els botons verds amb una creu de color negre per apropar; al botó verd amb un guió per allunyar la imatge; o en les fletxes verdes per a mapes adjacents.


METAR-TAF: